Time;durP1;ratioP1;P1;durP2;ratioP2;P2;SDS_P1;SDS_P2;PMS_P1;PMS_P2;Temp;Humidity;BMP_temperature;BMP_pressure;BME280_temperature;BME280_humidity;BME280_pressure;Samples;Min_cycle;Max_cycle;Signal;HPM_P1;HPM_P2
2022/06/15 00:00:29;;;;;;;6.40;2.78;;;;;;;9.11;100.00;101384.19;4987147;28;20159;-81
2022/06/15 00:02:54;;;;;;;5.43;2.65;;;;;;;9.17;100.00;101380.06;4972971;28;20464;-83
2022/06/15 00:05:20;;;;;;;4.28;2.55;;;;;;;9.09;100.00;101359.34;4967562;28;20045;-83
2022/06/15 00:07:45;;;;;;;7.75;2.78;;;;;;;9.22;100.00;101375.06;4984174;28;20077;-84
2022/06/15 00:10:11;;;;;;;3.35;2.33;;;;;;;9.17;100.00;101369.31;4956097;28;20049;-83
2022/06/15 00:12:37;;;;;;;3.28;2.10;;;;;;;8.98;100.00;101362.25;4988165;28;20463;-81
2022/06/15 00:15:04;;;;;;;3.20;1.95;;;;;;;8.92;100.00;101362.84;4996514;28;20468;-83
2022/06/15 00:17:31;;;;;;;4.82;2.30;;;;;;;8.74;100.00;101369.00;4988838;28;20070;-83
2022/06/15 00:19:56;;;;;;;4.10;2.45;;;;;;;8.61;100.00;101360.47;4956881;28;20050;-82
2022/06/15 00:22:22;;;;;;;4.03;2.22;;;;;;;8.42;100.00;101360.56;4980349;28;20026;-82
2022/06/15 00:24:47;;;;;;;5.85;2.60;;;;;;;8.16;100.00;101347.78;4983623;28;20078;-82
2022/06/15 00:27:13;;;;;;;5.97;2.20;;;;;;;8.08;100.00;101359.22;4954313;28;20042;-82
2022/06/15 00:29:39;;;;;;;5.20;2.53;;;;;;;7.81;100.00;101329.69;4984580;28;20396;-82
2022/06/15 00:32:06;;;;;;;4.00;2.30;;;;;;;7.82;100.00;101352.78;4971293;28;20479;-83
2022/06/15 00:34:31;;;;;;;4.57;2.30;;;;;;;7.73;100.00;101351.81;4972598;28;20061;-83
2022/06/15 00:36:57;;;;;;;4.72;2.60;;;;;;;7.66;100.00;101359.56;4958612;28;20160;-83
2022/06/15 00:39:22;;;;;;;7.30;3.05;;;;;;;7.53;100.00;101352.81;4989032;28;20081;-81
2022/06/15 00:41:48;;;;;;;4.60;2.60;;;;;;;7.53;100.00;101359.00;4964130;28;20038;-81
2022/06/15 00:44:17;;;;;;;6.60;3.10;;;;;;;7.51;100.00;101365.47;4985075;28;20035;-81
2022/06/15 00:46:44;;;;;;;5.05;2.60;;;;;;;7.48;100.00;101359.41;4990215;28;20041;-83
2022/06/15 00:49:21;;;;;;;5.47;2.83;;;;;;;7.49;100.00;101357.59;4985506;28;20101;-83
2022/06/15 00:51:49;;;;;;;5.00;2.72;;;;;;;7.44;100.00;101357.19;4973211;28;20097;-83
2022/06/15 00:54:15;;;;;;;8.02;2.95;;;;;;;7.39;100.00;101346.91;4988017;28;20034;-81
2022/06/15 00:56:43;;;;;;;5.80;2.40;;;;;;;7.35;100.00;101356.16;4958635;28;20129;-83
2022/06/15 00:59:24;;;;;;;6.03;2.90;;;;;;;7.27;100.00;101362.22;4954472;28;20038;-81
2022/06/15 01:01:50;;;;;;;5.10;2.25;;;;;;;7.20;100.00;101354.91;4952373;28;20108;-84
2022/06/15 01:04:19;;;;;;;5.75;2.67;;;;;;;7.13;100.00;101351.09;4985789;28;20491;-82
2022/06/15 01:07:12;;;;;;;6.45;2.78;;;;;;;7.09;100.00;101360.38;4986849;28;20037;-83
2022/06/15 01:09:44;;;;;;;4.03;2.40;;;;;;;6.97;100.00;101351.63;4968102;28;20038;-82
2022/06/15 01:12:20;;;;;;;7.03;2.80;;;;;;;6.82;100.00;101344.00;4985366;28;20023;-81
2022/06/15 01:15:04;;;;;;;1999.90;999.90;;;;;;;6.85;100.00;101368.75;4980398;28;20048;-82
2022/06/15 01:17:54;;;;;;;38.63;10.10;;;;;;;6.78;100.00;101361.28;4988368;28;20045;-81
2022/06/15 01:20:36;;;;;;;7.22;2.75;;;;;;;6.74;100.00;101362.53;4986681;28;20042;-83
2022/06/15 01:23:17;;;;;;;7.97;3.05;;;;;;;6.62;100.00;101347.63;4982568;28;20513;-82
2022/06/15 01:26:09;;;;;;;5.85;2.40;;;;;;;6.59;100.00;101343.38;4982805;28;20050;-85
2022/06/15 01:28:54;;;;;;;2.95;1.35;;;;;;;6.66;100.00;101349.00;4971060;28;20464;-84
2022/06/15 01:31:24;;;;;;;5.70;2.22;;;;;;;6.57;100.00;101334.66;4955132;28;20057;-83
2022/06/15 01:34:24;;;;;;;98.50;93.93;;;;;;;6.58;100.00;101341.66;4966933;28;20141;-84
2022/06/15 01:37:03;;;;;;;11.05;10.23;;;;;;;6.58;100.00;101349.69;4974438;28;20089;-81
2022/06/15 01:39:42;;;;;;;1999.90;999.90;;;;;;;6.50;100.00;101351.34;4983937;28;20120;-81
2022/06/15 01:42:16;;;;;;;1999.90;999.90;;;;;;;6.43;100.00;101351.06;4968140;28;20037;-84
2022/06/15 01:44:45;;;;;;;1999.90;999.90;;;;;;;6.29;100.00;101327.38;4984093;28;20040;-83
2022/06/15 01:47:14;;;;;;;1999.90;999.90;;;;;;;6.36;100.00;101344.56;4986239;28;20042;-84
2022/06/15 01:49:42;;;;;;;1999.90;999.90;;;;;;;6.26;100.00;101336.50;4964468;28;20034;-82
2022/06/15 01:52:14;;;;;;;1999.90;999.90;;;;;;;6.23;100.00;101338.59;4979683;28;20045;-84
2022/06/15 01:54:48;;;;;;;1999.90;999.90;;;;;;;6.22;100.00;101339.56;4982730;28;20435;-83
2022/06/15 01:57:15;;;;;;;1999.90;999.90;;;;;;;6.22;100.00;101334.22;4969223;28;20045;-82
2022/06/15 01:59:49;;;;;;;1999.90;999.90;;;;;;;6.16;100.00;101333.75;4982922;28;20387;-83
2022/06/15 02:02:43;;;;;;;1999.90;999.90;;;;;;;6.19;100.00;101331.81;4984205;28;20034;-83
2022/06/15 02:05:25;;;;;;;4.57;2.30;;;;;;;6.11;100.00;101332.47;4969142;28;20531;-84
2022/06/15 02:08:11;;;;;;;6.72;3.13;;;;;;;6.05;100.00;101339.19;4945352;28;20042;-83
2022/06/15 02:10:50;;;;;;;7.22;3.28;;;;;;;5.96;100.00;101339.16;4989098;28;20045;-82
2022/06/15 02:13:20;;;;;;;4.82;2.72;;;;;;;5.92;100.00;101341.19;4983969;28;20030;-83
2022/06/15 02:15:52;;;;;;;6.78;3.13;;;;;;;5.88;100.00;101343.28;4956897;28;20038;-83
2022/06/15 02:18:20;;;;;;;6.78;2.65;;;;;;;5.80;100.00;101343.09;4954933;28;20523;-83
2022/06/15 02:20:51;;;;;;;12.60;3.70;;;;;;;5.80;100.00;101345.75;4972319;28;20109;-83
2022/06/15 02:23:17;;;;;;;6.78;2.85;;;;;;;5.82;100.00;101341.16;4964351;28;20476;-83
2022/06/15 02:25:45;;;;;;;8.02;3.05;;;;;;;5.83;100.00;101345.50;4989276;28;20038;-84
2022/06/15 02:28:11;;;;;;;5.80;2.60;;;;;;;5.78;100.00;101337.03;4986399;28;20046;-82
2022/06/15 02:30:37;;;;;;;5.93;2.65;;;;;;;5.56;100.00;101306.00;4985851;28;20034;-82
2022/06/15 02:33:24;;;;;;;5.63;2.85;;;;;;;5.84;100.00;101341.84;4988547;28;20041;-82
2022/06/15 02:35:50;;;;;;;7.65;3.45;;;;;;;5.85;100.00;101338.22;5000252;28;20474;-83
2022/06/15 02:38:16;;;;;;;5.80;3.00;;;;;;;5.90;100.00;101340.47;4956611;28;20034;-83
2022/06/15 02:40:42;;;;;;;9.13;3.70;;;;;;;5.94;100.00;101328.59;4984973;28;20439;-81
2022/06/15 02:43:09;;;;;;;6.25;3.00;;;;;;;5.93;100.00;101313.53;4971901;28;20080;-84
2022/06/15 02:45:37;;;;;;;8.55;2.88;;;;;;;6.12;100.00;101331.50;4986461;28;20030;-83
2022/06/15 02:48:05;;;;;;;5.30;2.83;;;;;;;6.14;100.00;101317.06;4983264;28;20037;-82
2022/06/15 02:50:59;;;;;;;5.80;3.08;;;;;;;6.27;100.00;101323.97;4975050;28;20030;-84
2022/06/15 02:53:28;;;;;;;5.57;3.05;;;;;;;6.22;100.00;101303.03;4952163;28;20046;-82
2022/06/15 02:55:56;;;;;;;6.25;2.90;;;;;;;6.33;100.00;101316.28;4952459;28;20049;-84
2022/06/15 02:58:27;;;;;;;7.38;2.70;;;;;;;6.29;100.00;101304.16;4986305;28;20066;-84
2022/06/15 03:00:53;;;;;;;6.20;3.10;;;;;;;6.46;100.00;101309.88;4985379;28;20049;-84
2022/06/15 03:03:22;;;;;;;5.25;2.95;;;;;;;6.52;100.00;101299.47;4990581;28;20620;-85
2022/06/15 03:05:51;;;;;;;6.80;3.08;;;;;;;6.60;100.00;101313.00;4989574;28;20038;-83
2022/06/15 03:08:18;;;;;;;11.45;3.58;;;;;;;6.68;100.00;101308.81;4988268;28;20034;-82
2022/06/15 03:10:44;;;;;;;7.65;2.97;;;;;;;6.76;100.00;101307.13;4970705;28;20771;-84
2022/06/15 03:13:10;;;;;;;8.57;3.38;;;;;;;6.78;100.00;101291.81;4990996;28;20038;-83
2022/06/15 03:15:35;;;;;;;10.10;3.55;;;;;;;6.93;100.00;101305.63;4989113;28;20026;-83
2022/06/15 03:18:02;;;;;;;6.15;3.05;;;;;;;7.01;100.00;101304.91;4976886;28;20129;-84
2022/06/15 03:20:27;;;;;;;8.75;3.45;;;;;;;6.99;100.00;101294.38;4981062;28;20018;-84
2022/06/15 03:22:53;;;;;;;8.25;3.38;;;;;;;7.11;100.00;101303.09;4987496;28;20035;-84
2022/06/15 03:25:19;;;;;;;9.35;3.70;;;;;;;7.16;100.00;101302.69;4969533;28;20046;-84
2022/06/15 03:27:44;;;;;;;12.85;4.22;;;;;;;7.22;100.00;101302.97;4974322;28;21965;-83
2022/06/15 03:30:12;;;;;;;8.90;2.85;;;;;;;7.28;100.00;101290.88;4972778;28;20038;-83
2022/06/15 03:32:38;;;;;;;7.05;3.70;;;;;;;7.26;100.00;101280.28;4970880;28;20026;-84
2022/06/15 03:35:04;;;;;;;10.48;3.90;;;;;;;7.38;100.00;101305.09;4983426;28;20042;-82
2022/06/15 03:37:33;;;;;;;7.40;3.60;;;;;;;7.37;100.00;101298.03;4956628;28;20077;-83
2022/06/15 03:39:58;;;;;;;10.02;3.22;;;;;;;7.38;100.00;101288.16;4973336;28;20030;-83
2022/06/15 03:42:25;;;;;;;8.02;3.00;;;;;;;7.42;100.00;101290.41;4958016;28;20569;-82
2022/06/15 03:44:53;;;;;;;8.85;3.45;;;;;;;7.42;100.00;101298.44;4975524;28;20050;-82
2022/06/15 03:47:20;;;;;;;6.85;3.70;;;;;;;7.24;100.00;101262.69;4972091;28;20065;-83
2022/06/15 03:49:51;;;;;;;9.25;3.65;;;;;;;7.45;100.00;101294.63;4989508;28;20080;-83
2022/06/15 03:52:17;;;;;;;7.15;3.45;;;;;;;7.26;100.00;101261.56;4960397;28;20383;-83
2022/06/15 03:54:44;;;;;;;8.93;3.60;;;;;;;7.53;100.00;101296.59;4987154;28;20342;-83
2022/06/15 03:57:11;;;;;;;7.10;3.50;;;;;;;7.53;100.00;101289.41;4989884;28;20061;-84
2022/06/15 03:59:39;;;;;;;10.15;3.78;;;;;;;7.57;100.00;101295.31;4955437;28;20089;-84
2022/06/15 04:02:05;;;;;;;5.80;2.97;;;;;;;7.61;100.00;101302.09;4986432;28;20348;-82
2022/06/15 04:04:31;;;;;;;7.47;3.28;;;;;;;7.53;100.00;101275.19;4987465;28;20415;-82
2022/06/15 04:06:56;;;;;;;5.72;3.08;;;;;;;7.62;100.00;101287.72;4954939;28;20042;-84
2022/06/15 04:09:22;;;;;;;5.90;3.28;;;;;;;7.66;100.00;101289.97;4968866;28;20034;-82
2022/06/15 04:11:58;;;;;;;7.63;3.70;;;;;;;7.61;100.00;101288.72;4969422;28;20121;-83
2022/06/15 04:14:31;;;;;;;11.55;3.30;;;;;;;7.67;100.00;101296.16;4975311;28;20125;-82
2022/06/15 04:16:57;;;;;;;8.75;3.83;;;;;;;7.78;100.00;101298.69;4974873;28;20039;-82
2022/06/15 04:19:25;;;;;;;8.07;3.70;;;;;;;7.81;100.00;101293.03;4970950;28;20046;-83
2022/06/15 04:21:51;;;;;;;9.93;3.30;;;;;;;7.84;100.00;101292.75;4989437;28;20038;-82
2022/06/15 04:24:17;;;;;;;6.75;3.92;;;;;;;7.87;100.00;101297.81;4984256;28;20045;-82
2022/06/15 04:26:44;;;;;;;7.35;3.55;;;;;;;7.93;100.00;101299.91;4973462;28;20045;-81
2022/06/15 04:29:10;;;;;;;6.45;4.00;;;;;;;7.94;100.00;101298.09;4970695;28;20042;-83
2022/06/15 04:31:38;;;;;;;6.75;3.30;;;;;;;7.98;100.00;101293.28;4968617;28;20087;-83
2022/06/15 04:34:05;;;;;;;10.23;4.60;;;;;;;8.01;100.00;101304.53;4988296;28;20030;-83
2022/06/15 04:36:30;;;;;;;10.18;3.67;;;;;;;8.07;100.00;101303.09;4955747;28;20034;-83
2022/06/15 04:38:56;;;;;;;9.18;3.35;;;;;;;8.05;100.00;101291.72;4983785;28;20761;-83
2022/06/15 04:41:22;;;;;;;10.73;3.50;;;;;;;8.15;100.00;101300.56;5002854;28;20034;-83
2022/06/15 04:43:48;;;;;;;8.65;3.90;;;;;;;8.14;100.00;101297.00;4959423;28;20026;-81
2022/06/15 04:46:13;;;;;;;8.55;3.80;;;;;;;8.17;100.00;101301.22;4985967;28;20062;-82
2022/06/15 04:48:39;;;;;;;9.00;4.15;;;;;;;8.22;100.00;101304.31;4989955;28;20030;-83
2022/06/15 04:51:20;;;;;;;8.68;4.82;;;;;;;8.25;100.00;101305.84;4984193;28;20031;-83
2022/06/15 04:53:48;;;;;;;7.90;3.97;;;;;;;8.29;100.00;101313.47;4966339;28;20038;-82
2022/06/15 04:56:14;;;;;;;7.68;3.70;;;;;;;8.30;100.00;101315.13;4952881;28;20038;-84
2022/06/15 04:58:40;;;;;;;9.13;3.88;;;;;;;8.36;100.00;101308.34;4986060;28;20479;-83
2022/06/15 05:01:07;;;;;;;9.20;3.58;;;;;;;8.43;100.00;101317.50;4987124;28;20031;-83
2022/06/15 05:03:36;;;;;;;9.23;3.78;;;;;;;8.49;100.00;101314.22;4987937;28;20034;-81
2022/06/15 05:06:08;;;;;;;13.38;3.80;;;;;;;8.51;100.00;101317.63;4956697;28;20041;-84
2022/06/15 05:08:34;;;;;;;9.85;3.95;;;;;;;8.60;100.00;101315.91;4968083;28;20308;-83
2022/06/15 05:11:02;;;;;;;10.95;3.42;;;;;;;8.65;100.00;101313.59;4967786;28;20042;-82
2022/06/15 05:13:27;;;;;;;8.32;3.25;;;;;;;8.75;100.00;101318.91;4985731;28;20053;-83
2022/06/15 05:15:53;;;;;;;7.22;3.97;;;;;;;8.86;100.00;101318.69;4988759;28;20479;-83
2022/06/15 05:18:19;;;;;;;7.95;3.50;;;;;;;8.94;100.00;101318.75;4954443;28;20041;-83
2022/06/15 05:20:45;;;;;;;5.45;3.10;;;;;;;9.03;100.00;101323.25;4958208;28;20089;-82
2022/06/15 05:23:15;;;;;;;6.18;3.58;;;;;;;9.15;100.00;101329.22;4980720;28;20042;-83
2022/06/15 05:25:40;;;;;;;1999.90;999.90;;;;;;;9.20;100.00;101316.19;4985332;28;20165;-84
2022/06/15 05:28:06;;;;;;;1999.90;999.90;;;;;;;9.32;100.00;101318.66;4983121;28;20496;-82
2022/06/15 05:30:32;;;;;;;1999.90;999.90;;;;;;;9.33;100.00;101306.91;4985145;28;20045;-84
2022/06/15 05:33:01;;;;;;;7.32;3.90;;;;;;;9.49;100.00;101323.16;4980668;28;20060;-83
2022/06/15 05:35:27;;;;;;;8.50;3.53;;;;;;;9.64;100.00;101318.91;4991725;28;20088;-84
2022/06/15 05:37:53;;;;;;;12.43;4.43;;;;;;;9.72;100.00;101314.63;4982991;28;20581;-84
2022/06/15 05:40:18;;;;;;;6.85;3.50;;;;;;;9.82;100.00;101316.22;4981756;28;20038;-85
2022/06/15 05:42:44;;;;;;;7.63;4.28;;;;;;;9.90;100.00;101318.94;4943909;28;20487;-84
2022/06/15 05:45:10;;;;;;;11.77;4.50;;;;;;;9.99;100.00;101317.16;4981833;28;20081;-83
2022/06/15 05:47:36;;;;;;;10.82;4.22;;;;;;;10.10;100.00;101314.19;4949418;28;20096;-83
2022/06/15 05:50:02;;;;;;;8.20;4.25;;;;;;;10.26;100.00;101309.91;4969463;28;20475;-84
2022/06/15 05:52:27;;;;;;;7.82;3.95;;;;;;;10.54;100.00;101322.16;4966506;28;20050;-85
2022/06/15 05:54:54;;;;;;;10.15;3.97;;;;;;;10.71;100.00;101315.00;4945489;28;20550;-86
2022/06/15 05:57:24;;;;;;;7.55;4.28;;;;;;;10.92;100.00;101311.03;4978956;28;20660;-82
2022/06/15 05:59:51;;;;;;;10.40;4.68;;;;;;;11.06;100.00;101306.84;4972086;28;20034;-87
2022/06/15 06:02:20;;;;;;;8.45;4.57;;;;;;;11.05;100.00;101302.47;4981094;28;20026;-83
2022/06/15 06:04:46;;;;;;;12.57;3.88;;;;;;;11.10;100.00;101302.81;4985091;28;20038;-84
2022/06/15 06:07:11;;;;;;;11.80;4.65;;;;;;;11.22;100.00;101323.88;4955191;28;20069;-83
2022/06/15 06:09:37;;;;;;;9.05;4.70;;;;;;;11.34;100.00;101327.06;4968148;28;20042;-82
2022/06/15 06:12:04;;;;;;;11.25;4.70;;;;;;;11.47;100.00;101318.50;4963272;28;20018;-84
2022/06/15 06:14:30;;;;;;;9.40;5.05;;;;;;;11.57;100.00;101315.66;4966690;28;20476;-84
2022/06/15 06:16:55;;;;;;;10.43;5.13;;;;;;;11.70;100.00;101313.28;4989656;28;20057;-83
2022/06/15 06:19:21;;;;;;;9.32;4.32;;;;;;;11.84;100.00;101315.28;4982190;28;20526;-83
2022/06/15 06:21:47;;;;;;;8.70;4.68;;;;;;;12.00;100.00;101319.00;4967624;28;20416;-82
2022/06/15 06:24:13;;;;;;;9.75;4.18;;;;;;;12.18;100.00;101318.81;4981030;28;20038;-85
2022/06/15 06:26:38;;;;;;;7.65;4.32;;;;;;;12.34;100.00;101315.22;4977563;28;20061;-84
2022/06/15 06:29:06;;;;;;;9.43;4.53;;;;;;;12.54;100.00;101316.47;4983185;28;20088;-84
2022/06/15 06:31:33;;;;;;;9.60;4.70;;;;;;;12.67;100.00;101316.75;4983853;28;20045;-82
2022/06/15 06:33:59;;;;;;;9.88;4.30;;;;;;;12.94;100.00;101322.69;4965866;28;20031;-83
2022/06/15 06:36:40;;;;;;;9.45;4.30;;;;;;;12.94;99.47;101287.63;4983133;28;20035;-81
2022/06/15 06:39:12;;;;;;;8.43;4.32;;;;;;;13.25;98.39;101329.91;4974404;28;20042;-82
2022/06/15 06:41:40;;;;;;;9.65;4.20;;;;;;;13.17;97.54;101299.25;4991323;28;20034;-82
2022/06/15 06:44:07;;;;;;;8.70;4.53;;;;;;;13.51;96.47;101335.00;4994013;28;20054;-80
2022/06/15 06:46:42;;;;;;;12.60;4.97;;;;;;;13.71;95.53;101335.34;4988937;28;20041;-81
2022/06/15 06:49:11;;;;;;;8.32;4.43;;;;;;;13.92;94.56;101337.31;4957740;28;20038;-81
2022/06/15 06:51:37;;;;;;;8.15;4.43;;;;;;;14.01;92.76;101326.25;4976839;28;20030;-83
2022/06/15 06:54:04;;;;;;;9.00;4.68;;;;;;;14.13;91.31;101332.06;4985927;28;20483;-82
2022/06/15 06:56:30;;;;;;;7.63;4.15;;;;;;;14.26;90.08;101324.16;4974864;28;21828;-82
2022/06/15 06:58:55;;;;;;;6.35;4.10;;;;;;;14.53;89.02;101335.38;4970260;28;20281;-81
2022/06/15 07:01:21;;;;;;;8.43;4.10;;;;;;;14.68;87.65;101336.16;4958223;28;20077;-82
2022/06/15 07:03:50;;;;;;;7.68;4.25;;;;;;;14.75;85.77;101322.72;4997173;28;20034;-81
2022/06/15 07:06:15;;;;;;;8.27;4.70;;;;;;;14.90;85.20;101336.25;4968067;28;20027;-83
2022/06/15 07:08:41;;;;;;;7.88;4.65;;;;;;;15.07;85.12;101337.69;4978892;28;20041;-81
2022/06/15 07:11:09;;;;;;;8.50;3.90;;;;;;;15.24;84.58;101341.00;4971262;28;20062;-83
2022/06/15 07:13:46;;;;;;;6.95;3.60;;;;;;;15.27;82.74;101334.34;4985003;28;20022;-80
2022/06/15 07:16:14;;;;;;;7.13;3.40;;;;;;;15.16;82.13;101341.09;4973335;28;20069;-81
2022/06/15 07:18:40;;;;;;;7.65;4.50;;;;;;;14.82;82.19;101315.53;4986213;28;20030;-81
2022/06/15 07:21:11;;;;;;;8.02;3.97;;;;;;;14.64;83.38;101334.06;4987468;28;20492;-82
2022/06/15 07:23:41;;;;;;;6.97;3.97;;;;;;;14.61;83.84;101353.38;4968601;28;20622;-81
2022/06/15 07:26:11;;;;;;;6.70;4.13;;;;;;;16.81;77.62;101342.63;4954885;28;20138;-80
2022/06/15 07:28:38;;;;;;;7.43;3.35;;;;;;;19.80;65.82;101303.03;4963826;28;20045;-82
2022/06/15 07:31:10;;;;;;;8.75;3.67;;;;;;;22.57;56.23;101350.44;4945989;28;20042;-82
2022/06/15 07:33:44;;;;;;;6.25;3.88;;;;;;;23.68;49.59;101348.25;4959726;28;20856;-82
2022/06/15 07:36:10;;;;;;;9.30;4.35;;;;;;;24.19;46.54;101350.16;4972616;28;20034;-82
2022/06/15 07:39:04;;;;;;;4.93;2.85;;;;;;;23.37;46.81;101349.63;4944343;28;20050;-82
2022/06/15 07:41:46;;;;;;;6.03;4.28;;;;;;;22.04;47.60;101340.47;4962928;28;20039;-84
2022/06/15 07:44:36;;;;;;;5.13;3.00;;;;;;;21.47;50.14;101314.47;4985047;28;20058;-84
2022/06/15 07:49:59;;;;;;;7.18;3.58;;;;;;;21.59;48.97;101361.00;4996128;28;20058;-83
2022/06/15 07:52:37;;;;;;;5.70;3.22;;;;;;;21.78;49.34;101350.81;4979923;28;20209;-85
2022/06/15 07:55:04;;;;;;;5.20;2.50;;;;;;;21.98;48.61;101338.69;4966324;28;20023;-84
2022/06/15 07:57:29;;;;;;;6.95;2.90;;;;;;;22.22;47.51;101337.63;4954566;28;20038;-85
2022/06/15 07:59:55;;;;;;;5.80;3.33;;;;;;;22.60;46.19;101337.13;4985695;28;20031;-84
2022/06/15 08:02:21;;;;;;;3.42;2.60;;;;;;;22.72;45.92;101348.03;4983196;28;20125;-87
2022/06/15 08:04:46;;;;;;;4.18;2.20;;;;;;;22.89;45.51;101355.50;4970841;28;20030;-87
2022/06/15 08:07:14;;;;;;;4.50;2.45;;;;;;;23.25;44.58;101349.66;4986466;28;20030;-86
2022/06/15 08:09:40;;;;;;;5.25;1.85;;;;;;;23.68;41.60;101333.66;4969360;28;20034;-85
2022/06/15 08:12:14;;;;;;;5.03;2.08;;;;;;;23.54;40.74;101343.31;4986667;28;20057;-85
2022/06/15 08:15:01;;;;;;;5.07;2.10;;;;;;;23.30;41.66;101354.41;4983081;28;20479;-86
2022/06/15 08:17:33;;;;;;;4.93;2.15;;;;;;;22.96;41.98;101358.94;4966595;28;20093;-84
2022/06/15 08:20:06;;;;;;;6.07;2.35;;;;;;;22.34;43.82;101363.13;4969861;28;20126;-84
2022/06/15 08:22:34;;;;;;;4.55;1.80;;;;;;;22.00;44.25;101363.94;4968410;28;20498;-86
2022/06/15 08:25:01;;;;;;;2.58;1.90;;;;;;;21.88;43.65;101361.16;4985161;28;20027;-83
2022/06/15 08:27:26;;;;;;;2.47;1.77;;;;;;;21.77;43.58;101338.19;4953000;28;20097;-83
2022/06/15 08:29:54;;;;;;;4.05;1.90;;;;;;;22.14;43.64;101362.63;4984381;28;20022;-82
2022/06/15 08:32:21;;;;;;;3.50;1.70;;;;;;;22.17;43.06;101365.72;4952912;28;20072;-83
2022/06/15 08:34:46;;;;;;;4.65;2.22;;;;;;;23.09;41.24;101368.81;4968087;28;20367;-83
2022/06/15 08:37:18;;;;;;;2.38;2.03;;;;;;;22.94;41.41;101361.09;4990191;28;20042;-82
2022/06/15 08:39:44;;;;;;;3.60;1.80;;;;;;;21.85;43.10;101353.44;4968015;28;20038;-84
2022/06/15 08:42:09;;;;;;;4.18;2.20;;;;;;;21.71;44.50;101369.25;4988106;28;20022;-86
2022/06/15 08:44:38;;;;;;;3.30;1.65;;;;;;;22.15;43.60;101353.34;4989458;28;20030;-83
2022/06/15 08:47:28;;;;;;;4.85;2.00;;;;;;;22.87;41.68;101365.91;4975655;28;20060;-83
2022/06/15 08:50:18;;;;;;;3.33;1.52;;;;;;;22.57;40.17;101367.75;4982776;28;20386;-82
2022/06/15 08:52:47;;;;;;;3.08;1.30;;;;;;;22.05;40.50;101342.16;4956528;28;20033;-84
2022/06/15 08:55:24;;;;;;;1.63;1.45;;;;;;;22.89;38.75;101367.31;4987430;28;20100;-82
2022/06/15 08:57:54;;;;;;;5.07;2.72;;;;;;;23.19;37.95;101358.88;4966040;28;20022;-83
2022/06/15 09:00:33;;;;;;;4.00;1.63;;;;;;;23.15;39.01;101378.81;4987045;28;20065;-82
2022/06/15 09:03:11;;;;;;;3.70;1.92;;;;;;;22.51;39.95;101373.34;4985670;28;20104;-82
2022/06/15 09:05:52;;;;;;;4.18;1.70;;;;;;;22.00;42.51;101381.19;4985469;28;20030;-82
2022/06/15 09:08:47;;;;;;;2.03;1.20;;;;;;;21.72;43.02;101379.13;4989397;28;20038;-82
2022/06/15 09:11:13;;;;;;;3.85;1.80;;;;;;;21.68;42.99;101378.75;4970086;28;20112;-83
2022/06/15 09:14:03;;;;;;;3.20;2.08;;;;;;;21.80;42.10;101383.41;4981732;28;20073;-81
2022/06/15 09:16:57;;;;;;;2.67;2.00;;;;;;;22.19;40.70;101384.69;4984531;28;20034;-81
2022/06/15 09:19:35;;;;;;;6.63;2.67;;;;;;;22.05;41.57;101384.06;4985625;28;20125;-82
2022/06/15 09:22:05;;;;;;;4.00;1.95;;;;;;;21.87;42.02;101379.50;4987551;28;20026;-82
2022/06/15 09:24:39;;;;;;;4.47;2.50;;;;;;;21.87;43.16;101384.16;4968022;28;20062;-83
2022/06/15 09:27:10;;;;;;;5.95;3.33;;;;;;;22.01;43.28;101357.38;4984700;28;20058;-82
2022/06/15 09:29:41;;;;;;;3.28;1.40;;;;;;;22.58;41.56;101382.28;4977065;28;20033;-84
2022/06/15 09:32:21;;;;;;;4.18;1.98;;;;;;;23.15;40.87;101387.03;4999606;28;20034;-84
2022/06/15 09:35:10;;;;;;;4.18;2.15;;;;;;;23.24;40.30;101380.09;4948604;28;20360;-83
2022/06/15 09:37:36;;;;;;;208.15;26.08;;;;;;;22.92;40.54;101388.78;4947050;28;20045;-84
2022/06/15 09:40:04;;;;;;;1999.90;999.90;;;;;;;22.75;40.20;101385.94;4967029;28;20054;-83
2022/06/15 09:42:36;;;;;;;1999.90;999.90;;;;;;;22.28;41.03;101386.00;4987378;28;20029;-84
2022/06/15 09:45:19;;;;;;;1618.18;282.23;;;;;;;22.10;42.13;101388.84;4966487;28;20088;-82
2022/06/15 09:47:54;;;;;;;;;;;;;;;22.05;41.89;101386.78;4970407;28;20089;-84
2022/06/15 09:50:19;;;;;;;1999.90;999.90;;;;;;;24.04;40.03;101392.78;4955285;28;19925;-82
2022/06/15 09:52:55;;;;;;;1999.90;999.90;;;;;;;25.79;36.36;101391.13;4965044;28;20459;-84
2022/06/15 09:55:41;;;;;;;1999.90;999.90;;;;;;;24.84;37.40;101387.06;4986956;28;20396;-82
2022/06/15 09:58:09;;;;;;;1999.90;999.90;;;;;;;23.66;38.23;101393.50;4969016;28;20057;-84
2022/06/15 10:00:36;;;;;;;1999.90;999.90;;;;;;;22.46;40.79;101386.94;4973205;28;20373;-82
2022/06/15 10:03:05;;;;;;;1999.90;999.90;;;;;;;23.96;38.28;101379.47;4988669;28;20030;-82
2022/06/15 10:05:34;;;;;;;1999.90;999.90;;;;;;;25.74;35.95;101396.59;4983922;28;20034;-82
2022/06/15 10:08:03;;;;;;;1999.90;999.90;;;;;;;26.99;32.37;101381.44;4970360;28;20072;-82
2022/06/15 10:10:37;;;;;;;1999.90;999.90;;;;;;;27.89;31.69;101394.91;4983267;28;20092;-82
2022/06/15 10:13:17;;;;;;;1999.90;999.90;;;;;;;28.54;31.34;101395.09;4981991;28;20053;-83
2022/06/15 10:15:42;;;;;;;2.75;1.63;;;;;;;29.06;30.49;101401.31;4987974;28;20061;-83
2022/06/15 10:18:20;;;;;;;3.00;1.60;;;;;;;28.43;30.31;101399.00;4973145;28;20026;-82
2022/06/15 10:21:14;;;;;;;2.13;1.55;;;;;;;28.38;30.47;101397.06;4969064;28;20085;-81
2022/06/15 10:23:52;;;;;;;5.18;2.65;;;;;;;29.33;28.04;101395.34;4987561;28;20030;-83
2022/06/15 10:26:26;;;;;;;3.03;1.55;;;;;;;29.46;28.48;101397.47;4990572;28;20026;-82
2022/06/15 10:28:52;;;;;;;1.92;1.42;;;;;;;29.90;27.66;101371.63;4972733;28;20038;-84
2022/06/15 10:31:33;;;;;;;2.17;1.20;;;;;;;29.95;26.96;101388.22;4990550;28;20044;-83
2022/06/15 10:34:19;;;;;;;3.33;1.60;;;;;;;29.40;28.19;101383.91;4952624;28;20031;-83
2022/06/15 10:36:52;;;;;;;4.18;2.05;;;;;;;29.08;30.04;101386.06;4956604;28;20038;-84
2022/06/15 10:39:40;;;;;;;2.47;1.60;;;;;;;30.00;28.75;101384.59;4988607;28;20332;-84
2022/06/15 10:42:07;;;;;;;1.98;1.15;;;;;;;29.26;28.51;101389.28;4989693;28;20030;-83
2022/06/15 10:44:48;;;;;;;2.42;1.40;;;;;;;27.61;31.34;101386.03;4971398;28;20038;-83
2022/06/15 10:47:17;;;;;;;3.28;1.10;;;;;;;27.65;30.80;101397.34;4972231;28;20026;-82
2022/06/15 10:49:47;;;;;;;4.00;1.27;;;;;;;27.35;30.62;101385.16;4972837;28;20561;-81
2022/06/15 10:52:26;;;;;;;2.15;1.08;;;;;;;26.43;32.03;101395.75;4990665;28;20023;-81
2022/06/15 11:03:41;;;;;;;2.85;1.48;;;;;;;26.68;31.58;101386.84;4988217;28;20069;-80
2022/06/15 11:06:06;;;;;;;2.65;1.42;;;;;;;27.03;30.90;101390.84;4991587;28;20038;-81
2022/06/15 11:08:33;;;;;;;5.70;2.35;;;;;;;26.52;32.18;101398.91;4990695;28;20038;-80
2022/06/15 11:11:21;;;;;;;3.60;1.50;;;;;;;26.20;32.80;101394.25;4976662;28;20066;-83
2022/06/15 11:13:58;;;;;;;3.08;1.13;;;;;;;25.50;33.53;101392.53;4982135;28;20035;-82
2022/06/15 11:19:17;;;;;;;3.00;1.50;;;;;;;24.52;35.17;101382.25;4989521;28;20036;-81
2022/06/15 11:21:50;;;;;;;3.00;1.45;;;;;;;25.28;34.76;101389.81;4972817;28;20478;-82
2022/06/15 11:24:29;;;;;;;3.72;1.77;;;;;;;26.29;32.12;101389.88;4991291;28;20057;-81
2022/06/15 11:27:08;;;;;;;3.53;1.60;;;;;;;29.28;29.18;101398.97;4976227;28;20042;-81
2022/06/15 11:29:49;;;;;;;2.58;1.50;;;;;;;31.08;26.29;101396.16;4959948;28;20035;-82
2022/06/15 11:32:51;;;;;;;3.85;1.70;;;;;;;29.71;28.00;101395.66;4992480;28;20054;-82
2022/06/15 11:35:40;;;;;;;3.53;1.45;;;;;;;29.07;27.83;101380.81;4975086;28;20037;-82
2022/06/15 11:38:17;;;;;;;1.65;1.10;;;;;;;29.32;27.39;101394.53;4959867;28;20026;-81
2022/06/15 11:40:46;;;;;;;1.33;1.23;;;;;;;27.89;29.54;101386.63;4956795;28;20093;-81
2022/06/15 11:43:34;;;;;;;2.35;1.25;;;;;;;27.41;31.11;101388.75;4956970;28;20038;-82
2022/06/15 11:46:58;;;;;;;3.45;1.30;;;;;;;26.94;30.97;101398.00;4989727;28;20047;-82
2022/06/15 11:49:30;;;;;;;2.47;1.30;;;;;;;26.29;32.03;101394.56;4989043;28;20081;-82
2022/06/15 11:52:08;;;;;;;1.98;1.30;;;;;;;26.07;32.93;101389.19;4988587;28;20133;-82